Time;durP1;ratioP1;P1;durP2;ratioP2;P2;SDS_P1;SDS_P2;PMS_P1;PMS_P2;Temp;Humidity;BMP_temperature;BMP_pressure;BME280_temperature;BME280_humidity;BME280_pressure;Samples;Min_cycle;Max_cycle;Signal;HPM_P1;HPM_P2
2023/08/28 00:02:08;;;;;;;;;2.75;1.50;;;;;16.37;63.47;100787.44;5081999;28;46221;-86
2023/08/28 00:04:34;;;;;;;;;3.50;2.75;;;;;16.40;63.30;100786.44;5072011;28;45525;-85
2023/08/28 00:06:59;;;;;;;;;3.50;0.75;;;;;16.41;63.33;100785.50;5065315;28;45337;-88
2023/08/28 00:09:24;;;;;;;;;3.50;1.75;;;;;16.42;63.65;100787.22;5061784;28;72031;-86
2023/08/28 00:11:50;;;;;;;;;5.50;1.75;;;;;16.44;63.24;100788.84;5079880;28;55245;-84
2023/08/28 00:14:15;;;;;;;;;5.00;2.00;;;;;16.49;63.42;100788.63;5062997;28;70654;-85
2023/08/28 00:16:40;;;;;;;;;2.50;1.25;;;;;16.50;63.27;100790.31;5079177;28;61444;-84
2023/08/28 00:19:06;;;;;;;;;1.50;1.50;;;;;16.49;63.53;100785.97;5069069;28;47582;-86
2023/08/28 00:21:31;;;;;;;;;2.75;1.75;;;;;16.52;63.48;100788.47;5052857;28;74639;-85
2023/08/28 00:23:56;;;;;;;;;1.75;1.75;;;;;16.48;63.45;100769.28;5074152;28;56282;-85
2023/08/28 00:26:21;;;;;;;;;1.50;1.50;;;;;16.55;63.45;100784.81;5058186;28;45347;-85
2023/08/28 00:28:47;;;;;;;;;4.50;1.75;;;;;16.55;63.65;100774.22;5071422;28;67087;-87
2023/08/28 00:31:12;;;;;;;;;1.25;1.00;;;;;16.60;63.23;100775.69;5072163;27;46000;-87
2023/08/28 00:33:38;;;;;;;;;2.75;1.00;;;;;16.58;63.35;100774.09;5074501;27;64982;-85
2023/08/28 00:36:03;;;;;;;;;2.25;1.75;;;;;16.56;63.26;100775.97;5076712;27;60820;-86
2023/08/28 00:38:29;;;;;;;;;3.00;2.00;;;;;16.58;63.17;100766.16;5076406;27;45374;-86
2023/08/28 00:40:54;;;;;;;;;2.00;1.00;;;;;16.58;63.61;100767.00;5075551;27;46440;-86
2023/08/28 00:43:19;;;;;;;;;4.50;1.25;;;;;16.56;63.73;100766.22;5068695;27;64416;-83
2023/08/28 00:45:45;;;;;;;;;3.00;1.75;;;;;16.58;63.27;100763.50;5076280;28;69441;-83
2023/08/28 00:48:13;;;;;;;;;3.25;0.75;;;;;16.59;63.45;100759.94;5079424;28;57547;-85
2023/08/28 00:50:38;;;;;;;;;2.75;0.75;;;;;16.60;63.34;100753.72;5070710;28;46952;-84
2023/08/28 00:53:04;;;;;;;;;0.75;0.75;;;;;16.61;63.48;100752.75;5057115;28;55651;-84
2023/08/28 00:55:31;;;;;;;;;2.00;2.00;;;;;16.62;63.63;100749.19;5077741;27;45272;-86
2023/08/28 00:57:56;;;;;;;;;1.50;1.50;;;;;16.63;63.20;100754.41;5071763;28;72356;-85
2023/08/28 01:00:21;;;;;;;;;0.75;0.75;;;;;16.65;63.36;100747.25;5069562;27;68650;-85
2023/08/28 01:02:47;;;;;;;;;4.00;2.00;;;;;16.65;63.26;100739.31;5079343;28;45431;-85
2023/08/28 01:05:16;;;;;;;;;1.00;1.00;;;;;16.73;63.35;100743.34;5075711;27;45378;-85
2023/08/28 01:07:52;;;;;;;;;1.25;1.25;;;;;16.75;63.29;100750.28;5077347;28;45429;-84
2023/08/28 01:10:29;;;;;;;;;10.25;5.00;;;;;16.77;63.22;100745.75;5072355;28;45626;-84
2023/08/28 01:13:14;;;;;;;;;1.50;1.00;;;;;16.77;63.48;100743.13;5049073;28;45771;-86
2023/08/28 01:15:40;;;;;;;;;3.00;3.00;;;;;16.83;63.29;100744.59;5058529;28;45433;-86
2023/08/28 01:18:07;;;;;;;;;2.50;1.00;;;;;16.83;63.41;100747.22;5060295;28;72993;-88
2023/08/28 01:20:33;;;;;;;;;2.50;1.00;;;;;16.86;63.38;100741.81;5058828;28;48343;-86
2023/08/28 01:23:05;;;;;;;;;0.75;0.75;;;;;16.87;63.17;100747.03;5070120;27;69580;-86
2023/08/28 01:25:31;;;;;;;;;1.00;1.00;;;;;16.88;63.05;100739.94;5066726;27;45473;-87
2023/08/28 01:27:57;;;;;;;;;1.00;1.00;;;;;16.87;63.14;100744.38;5069607;27;45518;-86
2023/08/28 01:30:22;;;;;;;;;1.00;0.00;;;;;16.87;63.40;100743.50;5074659;27;45561;-86
2023/08/28 01:32:48;;;;;;;;;0.75;0.75;;;;;16.87;63.42;100738.22;5072714;27;70166;-86
2023/08/28 01:35:25;;;;;;;;;1.00;0.50;;;;;16.86;63.19;100742.66;5096931;27;53095;-87
2023/08/28 01:37:58;;;;;;;;;1.25;1.25;;;;;16.87;63.09;100741.75;5094038;27;45346;-88
2023/08/28 01:40:28;;;;;;;;;1.50;0.50;;;;;16.83;63.32;100726.97;5084490;27;47116;-87
2023/08/28 01:42:54;;;;;;;;;3.00;2.00;;;;;16.84;63.34;100719.91;5065275;28;45781;-82
2023/08/28 01:45:20;;;;;;;;;2.75;1.00;;;;;16.82;63.47;100719.06;5078873;28;68913;-83
2023/08/28 01:47:45;;;;;;;;;1.00;1.00;;;;;16.83;63.41;100734.00;5083414;27;45252;-82
2023/08/28 01:50:11;;;;;;;;;1.00;0.75;;;;;16.82;63.51;100724.38;5078681;28;76236;-85
2023/08/28 01:52:36;;;;;;;;;1.50;0.75;;;;;16.83;63.62;100728.72;5080814;27;52712;-84
2023/08/28 01:55:02;;;;;;;;;1.75;0.25;;;;;16.82;63.25;100722.59;5075128;28;45448;-86
2023/08/28 01:57:27;;;;;;;;;0.75;0.50;;;;;16.83;63.28;100719.03;5081619;28;45476;-85
2023/08/28 01:59:52;;;;;;;;;0.75;0.75;;;;;16.80;63.41;100726.25;5076289;28;70566;-87
2023/08/28 02:02:19;;;;;;;;;5.50;2.00;;;;;16.82;63.25;100716.44;5078708;28;45202;-86
2023/08/28 02:04:44;;;;;;;;;0.75;0.75;;;;;16.79;63.34;100713.97;5094954;27;58253;-83
2023/08/28 02:07:10;;;;;;;;;2.00;0.00;;;;;16.79;63.28;100719.25;5076052;28;65649;-83
2023/08/28 02:09:35;;;;;;;;;1.50;1.00;;;;;16.78;63.35;100718.38;5074856;27;62087;-88
2023/08/28 02:12:01;;;;;;;;;0.75;0.75;;;;;16.80;63.61;100721.81;5072925;27;45467;-87
2023/08/28 02:14:26;;;;;;;;;1.00;1.00;;;;;16.78;63.42;100720.19;5072748;28;45445;-86
2023/08/28 02:16:51;;;;;;;;;0.50;0.50;;;;;16.76;63.10;100722.91;5071811;28;67401;-87
2023/08/28 02:19:17;;;;;;;;;0.75;0.75;;;;;16.75;63.40;100717.69;5073618;28;66830;-86
2023/08/28 02:21:42;;;;;;;;;0.00;0.00;;;;;16.74;63.76;100711.56;5076253;28;62607;-83
2023/08/28 02:24:07;;;;;;;;;0.00;0.00;;;;;16.77;63.55;100705.25;5053564;28;64336;-84
2023/08/28 02:26:33;;;;;;;;;2.00;0.75;;;;;16.79;63.73;100711.34;5071748;28;47268;-85
2023/08/28 02:28:58;;;;;;;;;3.25;1.75;;;;;16.79;63.64;100706.91;5065259;28;68611;-86
2023/08/28 02:31:23;;;;;;;;;1.00;0.75;;;;;16.78;63.72;100713.09;5067553;28;66081;-83
2023/08/28 02:33:49;;;;;;;;;1.00;0.50;;;;;16.81;63.71;100718.22;5072638;28;62154;-83
2023/08/28 02:36:14;;;;;;;;;0.75;0.00;;;;;16.84;63.56;100715.47;5090426;27;45383;-83
2023/08/28 02:38:40;;;;;;;;;1.75;0.75;;;;;16.82;64.05;100714.66;5067957;28;72744;-83
2023/08/28 02:41:09;;;;;;;;;0.50;0.00;;;;;16.81;63.61;100709.47;5068420;28;67311;-83
2023/08/28 02:43:36;;;;;;;;;0.75;0.75;;;;;16.79;63.94;100708.69;5054355;28;45565;-83
2023/08/28 02:46:02;;;;;;;;;1.75;0.75;;;;;16.81;64.28;100717.38;5077943;27;45261;-87
2023/08/28 02:48:27;;;;;;;;;0.75;0.25;;;;;16.83;64.17;100723.44;5046314;28;47217;-85
2023/08/28 02:50:53;;;;;;;;;1.75;0.75;;;;;16.79;64.20;100721.91;5070062;28;45280;-86
2023/08/28 02:53:18;;;;;;;;;1.75;0.25;;;;;16.79;64.05;100730.69;5075975;28;45471;-85
2023/08/28 02:56:29;;;;;;;;;1.00;0.50;;;;;16.83;64.36;100723.44;5079316;28;72332;-84
2023/08/28 02:58:54;;;;;;;;;2.25;1.00;;;;;16.83;64.11;100723.44;5052404;28;46841;-85
2023/08/28 03:01:20;;;;;;;;;3.50;0.50;;;;;16.81;64.13;100722.66;5069426;28;45507;-82
2023/08/28 03:03:49;;;;;;;;;0.75;0.75;;;;;16.83;64.19;100724.31;5076746;28;45312;-82
2023/08/28 03:06:14;;;;;;;;;2.25;1.25;;;;;16.82;63.73;100730.53;5072305;28;46347;-82
2023/08/28 03:08:40;;;;;;;;;0.25;0.25;;;;;16.81;64.00;100730.59;5079900;28;46006;-82
2023/08/28 03:11:05;;;;;;;;;0.75;0.75;;;;;16.77;64.24;100734.31;5074749;28;64595;-80
2023/08/28 03:13:30;;;;;;;;;0.75;0.00;;;;;16.72;64.02;100731.09;5078600;28;54603;-82
2023/08/28 03:15:56;;;;;;;;;0.50;0.50;;;;;16.67;64.33;100734.81;5070854;28;59904;-83
2023/08/28 03:18:21;;;;;;;;;0.00;0.00;;;;;16.64;63.97;100728.84;5079489;28;45434;-82
2023/08/28 03:20:47;;;;;;;;;0.50;0.50;;;;;16.61;64.44;100743.06;5078241;28;45312;-83
2023/08/28 03:23:12;;;;;;;;;1.50;0.00;;;;;16.57;64.52;100738.88;5073604;28;45236;-83
2023/08/28 03:25:37;;;;;;;;;3.75;1.00;;;;;16.54;65.00;100739.03;5057558;28;45665;-84
2023/08/28 03:28:07;;;;;;;;;0.00;0.00;;;;;16.52;65.04;100741.75;5076786;27;70899;-84
2023/08/28 03:30:32;;;;;;;;;1.75;0.00;;;;;16.49;65.12;100744.56;5077089;28;45622;-83
2023/08/28 03:32:57;;;;;;;;;0.50;0.50;;;;;16.50;65.21;100742.75;5063470;28;47843;-84
2023/08/28 03:35:23;;;;;;;;;1.50;0.25;;;;;16.53;64.94;100742.59;5080063;28;72117;-84
2023/08/28 03:37:48;;;;;;;;;3.00;1.00;;;;;16.54;65.08;100743.44;5070309;28;56727;-83
2023/08/28 03:40:13;;;;;;;;;1.00;0.25;;;;;16.55;65.37;100750.47;5094541;27;45475;-83
2023/08/28 03:42:39;;;;;;;;;1.00;1.00;;;;;16.55;65.25;100743.38;5063694;28;51279;-84
2023/08/28 03:45:04;;;;;;;;;0.75;0.75;;;;;16.58;65.55;100759.06;5074100;28;61862;-83
2023/08/28 03:47:30;;;;;;;;;2.00;0.75;;;;;16.60;66.05;100759.84;5078289;28;45886;-82
2023/08/28 03:49:55;;;;;;;;;1.50;0.75;;;;;16.60;65.94;100761.66;5084243;27;67211;-81
2023/08/28 03:52:20;;;;;;;;;3.25;1.00;;;;;16.63;65.54;100750.94;5087423;27;54129;-82
2023/08/28 03:54:46;;;;;;;;;1.50;0.25;;;;;16.62;65.75;100752.69;5089934;28;47921;-83
2023/08/28 03:57:11;;;;;;;;;3.50;0.25;;;;;16.63;65.57;100754.41;5083245;27;45278;-84
2023/08/28 03:59:36;;;;;;;;;2.25;0.75;;;;;16.65;65.38;100759.63;5073939;27;45603;-81
2023/08/28 04:02:02;;;;;;;;;0.50;0.50;;;;;16.64;65.81;100760.53;5075853;27;50057;-83
2023/08/28 04:04:27;;;;;;;;;2.75;0.75;;;;;16.64;65.35;100765.81;5057368;28;45553;-82
2023/08/28 04:06:53;;;;;;;;;0.50;0.25;;;;;16.64;65.49;100763.19;5066429;28;54690;-83
2023/08/28 04:09:18;;;;;;;;;1.25;0.75;;;;;16.67;65.28;100769.16;5072615;28;45314;-83
2023/08/28 04:11:43;;;;;;;;;1.00;0.75;;;;;16.69;65.43;100763.81;5071785;27;45276;-85
2023/08/28 04:14:09;;;;;;;;;1.00;0.50;;;;;16.73;65.54;100773.28;5081401;27;67358;-85
2023/08/28 04:16:35;;;;;;;;;2.75;1.00;;;;;16.74;65.32;100759.13;5069098;27;48068;-86
2023/08/28 04:19:00;;;;;;;;;3.00;1.75;;;;;16.73;65.55;100765.34;5076046;27;64194;-86
2023/08/28 04:21:25;;;;;;;;;4.00;1.75;;;;;16.79;65.73;100766.84;5080885;27;45427;-84
2023/08/28 04:23:51;;;;;;;;;1.00;0.75;;;;;16.78;65.61;100763.31;5075130;28;45459;-85
2023/08/28 04:26:16;;;;;;;;;5.00;1.50;;;;;16.79;65.39;100761.56;5089474;27;75524;-84
2023/08/28 04:28:41;;;;;;;;;3.50;0.75;;;;;16.80;65.79;100760.59;5077546;27;69021;-85
2023/08/28 04:31:11;;;;;;;;;1.75;0.50;;;;;16.76;65.36;100759.06;5077182;27;45254;-84
2023/08/28 04:33:36;;;;;;;;;0.75;0.75;;;;;16.75;65.34;100752.94;5067451;27;45617;-86
2023/08/28 04:36:02;;;;;;;;;2.25;0.25;;;;;16.69;65.26;100748.78;5068464;28;51998;-86
2023/08/28 04:38:28;;;;;;;;;1.50;0.50;;;;;16.68;65.83;100762.13;5079694;27;45288;-85
2023/08/28 04:40:53;;;;;;;;;2.75;0.75;;;;;16.67;66.00;100755.94;5081275;27;45502;-84
2023/08/28 04:43:19;;;;;;;;;1.25;0.50;;;;;16.67;65.85;100748.03;5079601;28;67703;-85
2023/08/28 04:45:44;;;;;;;;;0.00;0.00;;;;;16.70;65.59;100744.38;5073861;28;49746;-83
2023/08/28 04:48:10;;;;;;;;;0.00;0.00;;;;;16.74;65.98;100750.38;5070979;27;53166;-84
2023/08/28 04:50:35;;;;;;;;;2.00;1.00;;;;;16.77;66.03;100747.53;5079833;27;45320;-84
2023/08/28 04:53:01;;;;;;;;;1.00;1.00;;;;;16.76;66.50;100744.03;5073714;28;45760;-84
2023/08/28 04:55:26;;;;;;;;;1.00;1.00;;;;;16.76;65.78;100740.56;5077404;27;46133;-85
2023/08/28 04:57:51;;;;;;;;;2.50;0.50;;;;;16.78;65.58;100741.31;5064211;28;66476;-85
2023/08/28 05:00:17;;;;;;;;;5.25;1.00;;;;;16.80;65.96;100737.69;5074965;28;70499;-84
2023/08/28 05:02:42;;;;;;;;;0.25;0.00;;;;;16.84;65.83;100738.41;5065252;28;45249;-86
2023/08/28 05:05:08;;;;;;;;;2.00;1.75;;;;;16.88;65.73;100737.31;5070496;28;59521;-86
2023/08/28 05:07:33;;;;;;;;;1.75;1.75;;;;;16.86;66.01;100718.03;5081973;27;52260;-86
2023/08/28 05:09:58;;;;;;;;;0.00;0.00;;;;;16.91;65.85;100725.69;5082918;28;62869;-87
2023/08/28 05:12:24;;;;;;;;;1.00;1.00;;;;;16.92;65.60;100741.47;5073638;27;72310;-87
2023/08/28 05:14:49;;;;;;;;;1.00;1.00;;;;;16.93;65.54;100729.09;5076503;28;52648;-86
2023/08/28 05:17:14;;;;;;;;;2.50;1.00;;;;;16.91;65.62;100726.56;5080294;27;52692;-87
2023/08/28 05:19:40;;;;;;;;;2.25;1.00;;;;;16.94;65.76;100734.31;5078464;28;53715;-87
2023/08/28 05:22:05;;;;;;;;;1.50;1.50;;;;;16.95;65.89;100732.53;5076898;27;45354;-85
2023/08/28 05:24:30;;;;;;;;;4.00;2.00;;;;;16.96;65.71;100731.59;5083962;28;66372;-85
2023/08/28 05:26:56;;;;;;;;;0.75;0.50;;;;;16.98;65.64;100737.63;5080654;27;46050;-75
2023/08/28 05:29:21;;;;;;;;;2.75;0.75;;;;;17.01;65.71;100745.41;5078552;27;60425;-81
2023/08/28 05:31:46;;;;;;;;;1.00;1.00;;;;;17.01;65.58;100742.78;5078969;27;45441;-76
2023/08/28 05:34:12;;;;;;;;;1.75;1.75;;;;;16.98;65.61;100742.94;5070748;27;46887;-72
2023/08/28 05:36:37;;;;;;;;;2.00;1.00;;;;;17.01;65.48;100743.63;5077421;27;45447;-68
2023/08/28 05:39:03;;;;;;;;;1.00;1.00;;;;;17.01;65.81;100742.78;5074421;27;69230;-71
2023/08/28 05:41:28;;;;;;;;;2.50;1.00;;;;;17.00;65.49;100739.28;5074358;27;45544;-71
2023/08/28 05:43:53;;;;;;;;;1.00;0.50;;;;;17.02;65.10;100741.84;5082606;27;47036;-71
2023/08/28 05:46:19;;;;;;;;;1.75;1.50;;;;;17.00;65.14;100741.94;5073936;27;45385;-70
2023/08/28 05:48:44;;;;;;;;;1.25;1.25;;;;;16.98;65.68;100735.00;5066677;28;58619;-71
2023/08/28 05:51:10;;;;;;;;;2.25;1.75;;;;;17.00;65.79;100738.44;5051324;28;45289;-72
2023/08/28 05:53:35;;;;;;;;;1.00;1.00;;;;;17.02;65.89;100734.75;5070307;28;47062;-71
2023/08/28 05:56:00;;;;;;;;;0.50;0.25;;;;;17.04;65.52;100724.97;5079123;27;45224;-70
2023/08/28 05:58:26;;;;;;;;;1.00;1.00;;;;;17.06;65.36;100723.06;5077459;27;45707;-70
2023/08/28 06:00:51;;;;;;;;;3.00;1.50;;;;;17.05;65.30;100726.69;5071539;28;45460;-69
2023/08/28 06:03:17;;;;;;;;;3.50;0.50;;;;;17.02;65.39;100731.28;5073042;28;46128;-71
2023/08/28 06:05:42;;;;;;;;;1.25;1.25;;;;;17.00;65.37;100730.50;5076744;28;70087;-70
2023/08/28 06:08:09;;;;;;;;;1.50;1.50;;;;;17.00;65.30;100730.50;5063935;28;45432;-71
2023/08/28 06:10:38;;;;;;;;;3.00;0.75;;;;;17.00;66.10;100723.41;5071618;28;58505;-72
2023/08/28 06:13:04;;;;;;;;;0.75;0.75;;;;;17.01;65.69;100721.63;5070631;28;48414;-72
2023/08/28 06:15:29;;;;;;;;;0.50;0.50;;;;;17.02;65.46;100718.91;5070489;28;45221;-72
2023/08/28 06:17:54;;;;;;;;;2.75;1.50;;;;;17.01;65.76;100708.41;5077473;28;60397;-73
2023/08/28 06:20:21;;;;;;;;;1.25;1.25;;;;;17.04;65.58;100718.81;5073740;28;45420;-70
2023/08/28 06:22:46;;;;;;;;;1.25;0.50;;;;;17.04;65.68;100718.81;5061131;28;45338;-73
2023/08/28 06:25:12;;;;;;;;;2.00;1.00;;;;;17.04;65.71;100724.09;5071497;28;60551;-70
2023/08/28 06:27:40;;;;;;;;;1.00;0.75;;;;;17.08;65.46;100728.28;5071958;28;45540;-70
2023/08/28 06:30:06;;;;;;;;;2.50;1.75;;;;;17.10;65.49;100722.91;5076508;28;71724;-72
2023/08/28 06:32:32;;;;;;;;;3.75;1.75;;;;;17.13;65.38;100725.41;5071828;28;45541;-72
2023/08/28 06:34:57;;;;;;;;;3.00;1.00;;;;;17.12;65.20;100718.41;5072425;28;45371;-72
2023/08/28 06:37:24;;;;;;;;;1.00;1.00;;;;;17.14;65.26;100720.03;5062377;28;45457;-76
2023/08/28 06:39:50;;;;;;;;;1.50;1.50;;;;;17.07;65.39;100719.50;5068841;28;45426;-70
2023/08/28 06:42:15;;;;;;;;;2.75;2.00;;;;;17.01;65.62;100716.34;5073415;28;45612;-68
2023/08/28 06:44:41;;;;;;;;;3.75;1.75;;;;;17.04;65.58;100714.38;5073927;27;69268;-72
2023/08/28 06:47:09;;;;;;;;;3.75;2.00;;;;;17.08;65.85;100713.25;5075534;27;45334;-77
2023/08/28 06:49:35;;;;;;;;;1.75;1.75;;;;;17.15;65.55;100713.78;5070956;27;45382;-74
2023/08/28 06:52:01;;;;;;;;;2.25;2.25;;;;;17.23;65.67;100718.69;5072363;28;56253;-78
2023/08/28 06:54:27;;;;;;;;;3.50;2.75;;;;;17.26;65.64;100718.47;5049422;28;45439;-78
2023/08/28 06:56:52;;;;;;;;;8.25;3.00;;;;;17.25;65.69;100725.56;5067236;27;45456;-76
2023/08/28 06:59:19;;;;;;;;;3.75;2.00;;;;;17.31;65.68;100719.09;5068934;28;45426;-77
2023/08/28 07:01:45;;;;;;;;;1.25;1.25;;;;;17.33;65.56;100732.22;5053953;28;48140;-74
2023/08/28 07:04:10;;;;;;;;;2.25;1.50;;;;;17.29;65.60;100698.97;5075035;28;45436;-82
2023/08/28 07:06:35;;;;;;;;;2.75;1.25;;;;;17.35;65.85;100707.41;5074432;27;61015;-71
2023/08/28 07:09:01;;;;;;;;;1.00;1.00;;;;;17.48;65.61;100719.97;5059899;28;45634;-72
2023/08/28 07:11:26;;;;;;;;;2.00;2.00;;;;;17.56;65.20;100707.97;5059119;28;45417;-73
2023/08/28 07:13:53;;;;;;;;;2.00;1.00;;;;;17.62;65.51;100710.28;5069172;28;45878;-71
2023/08/28 07:16:19;;;;;;;;;2.75;0.75;;;;;17.64;65.17;100702.28;5073592;27;45502;-72
2023/08/28 07:18:44;;;;;;;;;1.75;1.00;;;;;17.59;65.75;100697.22;5076041;27;45349;-70
2023/08/28 07:21:10;;;;;;;;;3.50;3.50;;;;;17.70;65.11;100703.72;5070539;28;58243;-72
2023/08/28 07:23:36;;;;;;;;;6.50;4.00;;;;;17.73;64.76;100707.03;5057090;28;45898;-70
2023/08/28 07:26:03;;;;;;;;;1.75;1.75;;;;;17.71;64.85;100708.06;5061993;28;45382;-70
2023/08/28 07:28:29;;;;;;;;;4.50;2.50;;;;;17.73;65.12;100707.03;5059531;28;45629;-70
2023/08/28 07:31:03;;;;;;;;;3.75;3.00;;;;;17.73;64.93;100707.03;5071253;28;45614;-72
2023/08/28 07:33:29;;;;;;;;;3.00;3.00;;;;;17.79;65.14;100713.75;5044306;28;45313;-70
2023/08/28 07:35:55;;;;;;;;;3.50;3.00;;;;;17.76;65.13;100712.16;5065406;27;45250;-71
2023/08/28 07:38:20;;;;;;;;;3.50;3.25;;;;;17.84;65.20;100714.34;5075903;28;45288;-71
2023/08/28 07:40:47;;;;;;;;;3.75;2.75;;;;;17.86;64.95;100707.19;5070553;28;75829;-71
2023/08/28 07:43:12;;;;;;;;;4.00;4.00;;;;;17.90;65.14;100705.22;5060445;28;45308;-71
2023/08/28 07:45:38;;;;;;;;;4.75;3.25;;;;;17.93;64.98;100715.66;5064865;27;56278;-68
2023/08/28 07:48:04;;;;;;;;;3.00;2.75;;;;;17.89;64.92;100709.69;5076594;28;45639;-74
2023/08/28 07:50:30;;;;;;;;;4.75;4.00;;;;;17.89;64.90;100709.69;5053991;28;47466;-71
2023/08/28 07:52:56;;;;;;;;;7.25;6.50;;;;;17.88;64.93;100713.25;5067742;28;46021;-77
2023/08/28 07:55:22;;;;;;;;;6.00;5.00;;;;;17.90;65.14;100713.16;5067118;27;45326;-73
2023/08/28 07:57:47;;;;;;;;;5.00;4.00;;;;;17.94;65.03;100712.06;5060863;28;59928;-69
2023/08/28 08:00:15;;;;;;;;;3.25;3.25;;;;;17.99;65.07;100717.94;5063348;28;46070;-71
2023/08/28 08:02:44;;;;;;;;;5.50;3.75;;;;;18.06;64.74;100716.66;5071338;28;45645;-68
2023/08/28 08:05:10;;;;;;;;;6.25;4.50;;;;;18.12;64.63;100718.06;5069552;28;45301;-71
2023/08/28 08:07:37;;;;;;;;;5.00;4.50;;;;;18.16;64.44;100720.44;5080259;27;45577;-69
2023/08/28 08:10:02;;;;;;;;;6.75;4.50;;;;;18.21;64.51;100722.81;5071936;28;45415;-69
2023/08/28 08:12:28;;;;;;;;;5.50;5.00;;;;;18.31;64.56;100728.41;5080462;27;45453;-70
2023/08/28 08:14:53;;;;;;;;;4.00;4.00;;;;;18.34;63.96;100720.28;5068164;28;45293;-68
2023/08/28 08:17:18;;;;;;;;;5.75;3.75;;;;;18.39;64.27;100721.72;5077585;27;45456;-68
2023/08/28 08:19:44;;;;;;;;;6.75;4.00;;;;;18.51;64.54;100725.44;5095420;27;68544;-70
2023/08/28 08:22:09;;;;;;;;;6.00;4.75;;;;;18.62;63.99;100727.44;5069778;28;71214;-69
2023/08/28 08:24:37;;;;;;;;;7.25;5.50;;;;;18.68;63.46;100723.53;5065531;28;45578;-69
2023/08/28 08:27:03;;;;;;;;;5.00;5.00;;;;;18.72;63.63;100725.09;5075834;27;45415;-70
2023/08/28 08:29:29;;;;;;;;;3.50;3.00;;;;;18.74;63.70;100729.34;5062290;28;45384;-71
2023/08/28 08:31:54;;;;;;;;;6.25;5.00;;;;;18.79;63.44;100731.72;5083033;27;73778;-70
2023/08/28 08:34:19;;;;;;;;;8.25;6.75;;;;;18.83;63.53;100741.22;5077661;28;45422;-70
2023/08/28 08:36:45;;;;;;;;;4.50;4.50;;;;;18.91;63.27;100744.25;5071950;27;63874;-68
2023/08/28 08:39:10;;;;;;;;;7.00;4.25;;;;;18.93;63.02;100744.16;5077137;27;62968;-69
2023/08/28 08:41:38;;;;;;;;;8.00;4.00;;;;;18.92;62.65;100730.03;5065307;28;45350;-69
2023/08/28 08:44:04;;;;;;;;;5.25;4.00;;;;;18.92;62.92;100735.31;5062989;28;45772;-68
2023/08/28 08:46:29;;;;;;;;;6.50;4.00;;;;;18.85;63.02;100730.50;5077325;27;45509;-73
2023/08/28 08:48:56;;;;;;;;;4.00;4.00;;;;;18.83;63.04;100730.59;5061542;28;47301;-68
2023/08/28 08:51:25;;;;;;;;;6.50;5.50;;;;;18.90;63.18;100737.22;5077617;28;45756;-68
2023/08/28 08:54:06;;;;;;;;;4.75;2.75;;;;;19.05;63.30;100729.25;5072130;28;45498;-70
2023/08/28 08:56:32;;;;;;;;;2.25;2.00;;;;;19.22;62.59;100734.34;5077753;27;45238;-69
2023/08/28 08:59:03;;;;;;;;;5.50;4.50;;;;;19.29;62.30;100733.03;5068655;28;46387;-70
2023/08/28 09:01:29;;;;;;;;;4.00;4.00;;;;;19.31;62.05;100741.72;5075795;28;46449;-71
2023/08/28 09:03:56;;;;;;;;;5.25;4.00;;;;;19.34;62.07;100730.09;5071258;28;45365;-72
2023/08/28 09:06:22;;;;;;;;;8.00;6.00;;;;;19.37;62.14;100739.63;5070470;27;45382;-70
2023/08/28 09:08:47;;;;;;;;;7.50;5.00;;;;;19.38;61.52;100733.41;5065055;28;46060;-71
2023/08/28 09:11:13;;;;;;;;;1.25;1.25;;;;;19.50;62.11;100737.91;5056024;27;45661;-70
2023/08/28 09:13:38;;;;;;;;;3.75;3.00;;;;;19.63;61.72;100738.81;5074855;27;45706;-71
2023/08/28 09:16:04;;;;;;;;;3.00;3.00;;;;;19.70;61.30;100741.91;5077843;27;65352;-71
2023/08/28 09:18:30;;;;;;;;;4.50;4.50;;;;;19.78;60.76;100729.03;5075902;27;45428;-70
2023/08/28 09:21:11;;;;;;;;;4.75;4.75;;;;;19.86;60.87;100731.19;5067079;27;45250;-70
2023/08/28 09:23:47;;;;;;;;;5.00;4.75;;;;;20.00;60.75;100732.91;5065931;27;45324;-71
2023/08/28 09:26:13;;;;;;;;;4.00;4.00;;;;;20.01;60.30;100727.50;5057993;28;45465;-71
2023/08/28 09:28:38;;;;;;;;;5.75;3.50;;;;;20.02;60.00;100723.03;5073740;28;47128;-71
2023/08/28 09:31:04;;;;;;;;;5.00;5.00;;;;;20.12;60.08;100723.28;5079374;27;45474;-71
2023/08/28 09:33:45;;;;;;;;;3.25;3.00;;;;;20.16;59.91;100727.44;5070767;27;46740;-71
2023/08/28 09:36:17;;;;;;;;;4.00;4.00;;;;;20.20;59.35;100729.78;5079163;27;45580;-71
2023/08/28 09:38:42;;;;;;;;;4.25;4.25;;;;;20.26;58.84;100728.53;5061039;28;48278;-71
2023/08/28 09:41:09;;;;;;;;;3.75;3.75;;;;;20.38;58.64;100725.03;5067314;28;45498;-72
2023/08/28 09:43:35;;;;;;;;;6.00;4.25;;;;;20.53;58.70;100727.59;5093104;27;45427;-72
2023/08/28 09:46:01;;;;;;;;;4.00;2.25;;;;;20.62;58.42;100725.16;5075699;27;45285;-72
2023/08/28 09:48:30;;;;;;;;;10.25;5.25;;;;;20.68;58.09;100721.22;5067810;28;46113;-71
2023/08/28 09:50:56;;;;;;;;;3.50;2.75;;;;;20.78;58.51;100724.09;5053593;27;46231;-71
2023/08/28 09:53:21;;;;;;;;;5.75;4.00;;;;;20.85;58.30;100725.38;5064866;28;45361;-71
2023/08/28 09:55:50;;;;;;;;;2.75;2.50;;;;;20.79;57.25;100724.00;5073986;27;53481;-74
2023/08/28 09:58:16;;;;;;;;;6.25;3.25;;;;;20.72;57.53;100725.38;5075047;28;46185;-69
2023/08/28 10:00:42;;;;;;;;;3.50;3.50;;;;;20.60;57.04;100729.69;5066104;28;45448;-70
2023/08/28 10:03:08;;;;;;;;;6.50;4.00;;;;;20.48;56.90;100727.88;5048583;28;45270;-71
2023/08/28 10:05:36;;;;;;;;;8.75;6.50;;;;;20.33;57.75;100736.91;5067091;27;45512;-71
2023/08/28 10:08:05;;;;;;;;;5.25;3.00;;;;;20.21;58.09;100733.28;5054234;28;47634;-69
2023/08/28 10:10:31;;;;;;;;;7.75;6.00;;;;;20.02;58.54;100744.28;5066438;28;45465;-70
2023/08/28 10:12:57;;;;;;;;;5.25;5.00;;;;;19.82;59.63;100749.13;5070330;28;45453;-74
2023/08/28 10:15:22;;;;;;;;;3.00;3.00;;;;;19.65;59.77;100742.22;5070437;27;45232;-69
2023/08/28 10:17:49;;;;;;;;;6.25;5.00;;;;;19.50;60.41;100733.44;5071194;28;58622;-71
2023/08/28 10:20:15;;;;;;;;;5.75;5.75;;;;;19.41;60.55;100736.69;5075997;28;73905;-71
2023/08/28 10:22:41;;;;;;;;;6.00;6.00;;;;;19.32;61.55;100740.78;5067603;28;56856;-71
2023/08/28 10:25:08;;;;;;;;;8.00;7.00;;;;;19.28;61.96;100733.97;5052756;28;73275;-71
2023/08/28 10:27:34;;;;;;;;;9.25;7.25;;;;;19.30;61.95;100741.81;5079298;27;55231;-69
2023/08/28 10:30:03;;;;;;;;;8.00;7.00;;;;;19.28;63.14;100733.97;5067337;28;45906;-70
2023/08/28 10:32:30;;;;;;;;;11.75;8.75;;;;;19.28;62.46;100741.06;5064843;28;45376;-68
2023/08/28 10:34:56;;;;;;;;;11.50;7.00;;;;;19.32;62.15;100726.69;5045591;27;70518;-72
2023/08/28 10:37:22;;;;;;;;;10.25;7.25;;;;;19.39;61.94;100729.78;5075457;27;57950;-72
2023/08/28 10:39:48;;;;;;;;;8.50;5.50;;;;;19.53;62.11;100743.03;5059498;28;45774;-72
2023/08/28 10:42:18;;;;;;;;;9.00;6.25;;;;;19.64;61.47;100737.03;5062542;28;66600;-69
2023/08/28 10:44:45;;;;;;;;;6.75;6.00;;;;;19.74;61.62;100735.47;5064972;28;45395;-72
2023/08/28 10:47:18;;;;;;;;;8.00;6.50;;;;;19.86;61.49;100736.50;5076599;28;45448;-69
2023/08/28 10:49:44;;;;;;;;;6.75;6.50;;;;;20.00;61.33;100736.41;5071172;27;45800;-74
2023/08/28 10:52:10;;;;;;;;;5.00;5.00;;;;;20.15;60.90;100742.53;5083383;27;45319;-79
2023/08/28 10:54:40;;;;;;;;;5.75;4.75;;;;;20.27;60.49;100744.38;5064550;28;45574;-77
2023/08/28 10:57:21;;;;;;;;;6.00;5.25;;;;;20.39;59.92;100737.34;5075820;27;45388;-74
2023/08/28 10:59:48;;;;;;;;;8.75;5.50;;;;;20.46;60.17;100730.66;5074681;27;45686;-75
2023/08/28 11:02:13;;;;;;;;;7.00;6.00;;;;;20.55;59.58;100734.47;5091543;27;45371;-72
2023/08/28 11:04:40;;;;;;;;;6.00;4.00;;;;;20.67;59.17;100736.31;5078337;28;45382;-73
2023/08/28 11:07:27;;;;;;;;;9.50;6.75;;;;;20.81;59.15;100737.19;5074319;28;46550;-73
2023/08/28 11:10:17;;;;;;;;;5.50;5.50;;;;;20.95;58.58;100728.25;5078789;28;45185;-72
2023/08/28 11:12:53;;;;;;;;;5.75;3.00;;;;;21.09;58.13;100721.91;5061171;28;45323;-72
2023/08/28 11:15:39;;;;;;;;;5.75;5.00;;;;;21.23;57.89;100725.31;5065779;28;45542;-73
2023/08/28 11:18:26;;;;;;;;;3.00;3.00;;;;;21.33;57.43;100717.50;5073657;28;47001;-73
2023/08/28 11:21:10;;;;;;;;;6.50;5.50;;;;;21.40;56.78;100715.22;5069244;27;45456;-72
2023/08/28 11:23:37;;;;;;;;;4.50;3.50;;;;;21.51;56.63;100717.13;5077395;28;45241;-73